Time;durP1;ratioP1;P1;durP2;ratioP2;P2;SDS_P1;SDS_P2;PMS_P1;PMS_P2;Temp;Humidity;BMP_temperature;BMP_pressure;BME280_temperature;BME280_humidity;BME280_pressure;Samples;Min_cycle;Max_cycle;Signal;HPM_P1;HPM_P2
2022/06/03 00:00:58;;;;;;;14.80;12.77;;;;;;;;;;6114947;23;20048;-72
2022/06/03 00:03:24;;;;;;;15.60;12.50;;;;;;;;;;6100911;23;20426;-74
2022/06/03 00:05:53;;;;;;;14.07;12.57;;;;;;;;;;6126991;23;20096;-74
2022/06/03 00:08:58;;;;;;;16.88;13.40;;;;;;;;;;6127008;23;20041;-74
2022/06/03 00:11:42;;;;;;;15.18;12.27;;;;;;;;;;5981443;24;20012;-74
2022/06/03 00:14:27;;;;;;;15.30;13.32;;;;;;;;;;5981375;24;20087;-74
2022/06/03 00:17:11;;;;;;;15.05;13.07;;;;;;;;;;5981092;24;20027;-75
2022/06/03 00:19:43;;;;;;;16.85;13.75;;;;;;;;;;5981097;24;20072;-71
2022/06/03 00:22:23;;;;;;;14.75;13.15;;;;;;;;;;5981198;24;20012;-70
2022/06/03 00:24:52;;;;;;;13.68;12.35;;;;;;;;;;5981502;24;20012;-75
2022/06/03 00:27:37;;;;;;;15.40;13.38;;;;;;;;;;5981351;24;20479;-72
2022/06/03 00:30:22;;;;;;;14.20;12.23;;;;;;;;;;5981387;24;20013;-74
2022/06/03 00:32:51;;;;;;;15.18;13.38;;;;;;;;;;5981000;23;20024;-76
2022/06/03 00:35:17;;;;;;;14.70;12.82;;;;;;;;;;5981239;24;20004;-76
2022/06/03 00:37:43;;;;;;;15.18;12.80;;;;;;;;;;5980935;24;20440;-75
2022/06/03 00:40:09;;;;;;;14.75;13.18;;;;;;;;;;5981045;24;20004;-75
2022/06/03 00:42:44;;;;;;;14.20;12.70;;;;;;;;;;6081489;23;20451;-75
2022/06/03 00:45:11;;;;;;;15.20;13.60;;;;;;;;;;6126601;23;20081;-73
2022/06/03 00:47:40;;;;;;;17.90;13.02;;;;;;;;;;6126300;23;20006;-74
2022/06/03 00:50:06;;;;;;;17.15;13.20;;;;;;;;;;6126471;23;20010;-75
2022/06/03 00:52:44;;;;;;;13.35;12.00;;;;;;;;;;6126588;23;20078;-75
2022/06/03 00:55:16;;;;;;;16.73;13.68;;;;;;;;;;6126509;23;20467;-73
2022/06/03 00:57:42;;;;;;;14.85;13.25;;;;;;;;;;6126848;23;20100;-75
2022/06/03 01:00:21;;;;;;;17.35;13.90;;;;;;;;;;6126514;23;19998;-74
2022/06/03 01:03:06;;;;;;;14.35;12.82;;;;;;;;;;6126396;23;20006;-74
2022/06/03 01:05:35;;;;;;;14.50;13.00;;;;;;;;;;6126602;23;20030;-74
2022/06/03 01:08:16;;;;;;;14.98;13.48;;;;;;;;;;6126689;23;20037;-74
2022/06/03 01:10:55;;;;;;;14.50;13.10;;;;;;;;;;6126464;23;20449;-74
2022/06/03 01:13:28;;;;;;;15.23;12.80;;;;;;;;;;6126179;23;20009;-74
2022/06/03 01:16:12;;;;;;;14.65;13.02;;;;;;;;;;6126235;23;20009;-74
2022/06/03 01:18:38;;;;;;;14.52;13.13;;;;;;;;;;6126252;23;20013;-74
2022/06/03 01:21:19;;;;;;;14.30;12.90;;;;;;;;;;6126659;23;20444;-74
2022/06/03 01:23:54;;;;;;;16.52;13.85;;;;;;;;;;6126185;23;20040;-75
2022/06/03 01:26:34;;;;;;;15.32;13.05;;;;;;;;;;6126347;23;19998;-73
2022/06/03 01:29:06;;;;;;;14.82;13.32;;;;;;;;;;6126131;23;20083;-74
2022/06/03 01:31:51;;;;;;;15.70;13.15;;;;;;;;;;6126149;23;20014;-72
2022/06/03 01:34:19;;;;;;;16.85;12.85;;;;;;;;;;6126274;23;20362;-74
2022/06/03 01:36:59;;;;;;;16.23;12.55;;;;;;;;;;6126225;23;20010;-74
2022/06/03 01:39:31;;;;;;;14.80;13.02;;;;;;;;;;6126209;23;20012;-74
2022/06/03 01:42:12;;;;;;;14.18;12.77;;;;;;;;;;6126210;23;19998;-74
2022/06/03 01:44:39;;;;;;;;;;;;;;;;;;6126626;23;20002;-71
2022/06/03 01:47:17;;;;;;;16.35;13.73;;;;;;;;;;6126130;23;19901;-71
2022/06/03 01:49:58;;;;;;;15.73;12.25;;;;;;;;;;6125989;23;19998;-73
2022/06/03 01:52:33;;;;;;;15.00;13.45;;;;;;;;;;6126155;23;20017;-70
2022/06/03 01:55:05;;;;;;;14.68;12.88;;;;;;;;;;6126167;23;20002;-72
2022/06/03 01:57:34;;;;;;;15.15;13.57;;;;;;;;;;6126139;23;20045;-72
2022/06/03 02:00:00;;;;;;;14.40;12.93;;;;;;;;;;6126023;23;20107;-74
2022/06/03 02:02:38;;;;;;;15.85;14.10;;;;;;;;;;6100119;23;20459;-75
2022/06/03 02:05:04;;;;;;;15.30;13.48;;;;;;;;;;6125949;23;20005;-74
2022/06/03 02:07:49;;;;;;;15.65;13.93;;;;;;;;;;6126134;23;20012;-74
2022/06/03 02:10:31;;;;;;;16.17;13.68;;;;;;;;;;6125925;23;20007;-74
2022/06/03 02:13:03;;;;;;;15.50;13.90;;;;;;;;;;6125946;23;20006;-74
2022/06/03 02:15:32;;;;;;;15.35;13.75;;;;;;;;;;6125955;23;20052;-72
2022/06/03 02:18:15;;;;;;;17.88;13.65;;;;;;;;;;6126131;23;20060;-72
2022/06/03 02:20:50;;;;;;;17.13;13.23;;;;;;;;;;6126079;23;20021;-69
2022/06/03 02:23:46;;;;;;;14.50;12.90;;;;;;;;;;6126003;23;20087;-74
2022/06/03 02:26:24;;;;;;;14.32;12.73;;;;;;;;;;5980244;24;20321;-74
2022/06/03 02:28:50;;;;;;;16.48;12.52;;;;;;;;;;5980363;24;20447;-72
2022/06/03 02:31:35;;;;;;;15.32;13.27;;;;;;;;;;5980121;24;20493;-71
2022/06/03 02:34:07;;;;;;;15.68;13.02;;;;;;;;;;5980096;23;20064;-70
2022/06/03 02:36:48;;;;;;;16.38;13.10;;;;;;;;;;5980318;24;20049;-74
2022/06/03 02:39:14;;;;;;;15.35;13.23;;;;;;;;;;5980339;24;20014;-75
2022/06/03 02:41:40;;;;;;;15.02;12.88;;;;;;;;;;5980158;24;20534;-74
2022/06/03 02:44:24;;;;;;;15.43;13.88;;;;;;;;;;5980253;24;20004;-75
2022/06/03 02:46:52;;;;;;;14.95;13.27;;;;;;;;;;5980290;24;20009;-75
2022/06/03 02:49:37;;;;;;;17.42;14.68;;;;;;;;;;5980055;24;20067;-73
2022/06/03 02:52:03;;;;;;;20.25;14.23;;;;;;;;;;5980050;24;20020;-73
2022/06/03 02:54:29;;;;;;;15.70;14.10;;;;;;;;;;5980398;24;20087;-76
2022/06/03 02:57:14;;;;;;;18.42;13.40;;;563.80;2432.00;;;;;;5980206;24;20020;-73
2022/06/03 03:00:10;;;;;;;14.18;12.40;;;563.90;2432.00;;;;;;5980352;24;20372;-74
2022/06/03 03:02:54;;;;;;;14.63;12.93;;;563.90;2432.00;;;;;;6054557;23;20002;-75
2022/06/03 03:05:58;;;;;;;21.75;13.55;;;563.90;2432.00;;;;;;6125677;23;20430;-75
2022/06/03 03:08:27;;;;;;;14.18;12.57;;;563.80;2432.00;;;;;;6125626;23;20012;-75
2022/06/03 03:11:06;;;;;;;15.68;13.13;;;563.90;2432.00;;;;;;6125881;23;20387;-75
2022/06/03 03:14:00;;;;;;;16.00;14.27;;;563.90;2432.00;;;;;;6127486;23;20006;-75
2022/06/03 03:16:53;;;;;;;17.00;13.75;;;563.90;2432.00;;;;;;6127607;23;20014;-75
2022/06/03 03:19:44;;;;;;;14.93;13.02;;;563.90;2432.00;;;;;;6127191;23;20013;-75
2022/06/03 03:22:24;;;;;;;15.35;13.40;;;563.80;2432.00;;;;;;6127672;23;20038;-74
2022/06/03 03:25:08;;;;;;;15.17;13.47;;;563.90;2432.00;;;;;;6127432;23;20152;-75
2022/06/03 03:27:53;;;;;;;18.90;13.52;;;563.80;2432.00;;;;;;6127571;23;20211;-74
2022/06/03 03:31:11;;;;;;;18.80;14.00;;;564.00;2432.00;;;;;;6127387;23;19998;-76
2022/06/03 03:33:57;;;;;;;18.67;14.00;;;564.00;2432.00;;;;;;6082550;23;20010;-75
2022/06/03 03:36:44;;;;;;;17.92;13.10;;;564.00;2432.00;;;;;;6127076;23;20049;-74
2022/06/03 03:39:24;;;;;;;25.35;14.90;;;564.10;2432.00;;;;;;6127220;23;20010;-76
2022/06/03 03:42:24;;;;;;;20.17;13.77;;;564.00;2432.00;;;;;;6127254;23;20056;-75
2022/06/03 03:45:02;;;;;;;21.50;14.23;;;;;;;;;;6127286;23;20009;-75
2022/06/03 03:47:42;;;;;;;17.73;14.10;;;;;;;;;;6127217;23;20073;-74
2022/06/03 03:50:20;;;;;;;19.73;14.10;;;;;;;;;;6127047;23;20444;-75
2022/06/03 03:52:57;;;;;;;16.50;13.73;;;;;;;;;;6127193;23;20071;-75
2022/06/03 03:55:23;;;;;;;26.00;15.32;;;;;;;;;;6127091;23;19998;-74
2022/06/03 03:58:08;;;;;;;16.42;13.73;;;;;;;;;;6127108;23;20041;-75
2022/06/03 04:00:46;;;;;;;17.25;13.27;;;;;;;;;;6127121;23;20009;-75
2022/06/03 04:03:31;;;;;;;23.15;15.27;;;;;;;;;;6127137;23;20114;-74
2022/06/03 04:06:20;;;;;;;23.52;13.88;;;;;;;;;;6126852;23;20005;-72
2022/06/03 04:09:05;;;;;;;21.05;13.88;;;;;;;;;;5981160;24;20031;-74
2022/06/03 04:11:49;;;;;;;23.10;15.27;;;;;;;;;;5981440;24;20008;-73
2022/06/03 04:14:33;;;;;;;29.60;15.23;;;;;;;;;;5981218;24;20091;-75
2022/06/03 04:17:00;;;;;;;21.85;14.10;;;;;;;;;;5981150;24;20440;-75
2022/06/03 04:19:41;;;;;;;28.20;15.63;;;;;;;;;;5981215;24;20476;-74
2022/06/03 04:22:16;;;;;;;25.27;17.65;;;;;;;;;;5980929;24;20028;-74
2022/06/03 04:25:00;;;;;;;20.42;16.27;;;;;;;;;;5981142;24;20008;-74
2022/06/03 04:27:37;;;;;;;19.08;16.65;;;;;;;;;;5981303;24;20432;-74
2022/06/03 04:30:22;;;;;;;23.00;15.52;;;;;;;;;;5981069;24;20011;-74
2022/06/03 04:33:06;;;;;;;17.92;14.35;;;;;;;;;;5980747;23;20027;-74
2022/06/03 04:35:45;;;;;;;17.25;13.77;;;;;;;;;;5980946;24;20053;-73
2022/06/03 04:38:29;;;;;;;25.92;13.90;;;;;;;;;;5980917;24;20019;-75
2022/06/03 04:41:01;;;;;;;19.42;14.30;;;;;;;;;;5981244;24;20369;-73
2022/06/03 04:43:27;;;;;;;15.68;13.43;;;;;;;;;;5980986;24;20011;-75
2022/06/03 04:46:20;;;;;;;16.67;13.57;;;614.40;2432.00;;;;;;6061134;23;20006;-76
2022/06/03 04:49:18;;;;;;;19.63;14.10;;;614.50;2432.00;;;;;;6126698;23;20081;-74
2022/06/03 04:52:06;;;;;;;18.77;16.73;;;614.50;2432.00;;;;;;6077461;23;20089;-75
2022/06/03 04:54:56;;;;;;;18.65;15.63;;;614.50;2432.00;;;;;;6126388;23;20370;-73
2022/06/03 04:57:33;;;;;;;18.02;15.13;;;614.50;2432.00;;;;;;6126757;23;20022;-76
2022/06/03 05:00:11;;;;;;;17.20;14.07;;;614.60;2432.00;;;;;;6126512;23;20068;-74
2022/06/03 05:03:00;;;;;;;19.90;16.25;;;614.60;2432.00;;;;;;6126498;23;20501;-74
2022/06/03 05:05:43;;;;;;;21.13;14.68;;;614.60;2432.00;;;;;;5980609;24;20012;-74
2022/06/03 05:08:30;;;;;;;20.10;13.80;;;614.70;2432.00;;;;;;5980722;24;20004;-74
2022/06/03 05:11:04;;;;;;;16.70;13.45;;;614.70;2432.00;;;;;;5980852;24;20087;-73
2022/06/03 05:13:48;;;;;;;16.23;13.05;;;614.80;2432.00;;;;;;5980738;24;20049;-74
2022/06/03 05:16:32;;;;;;;18.35;13.63;;;;;;;;;;5980528;24;20012;-74
2022/06/03 05:18:58;;;;;;;14.60;11.55;;;;;;;;;;5980616;24;20079;-73
2022/06/03 05:21:33;;;;;;;15.85;12.30;;;;;;;;;;5980306;24;20012;-74
2022/06/03 05:24:18;;;;;;;17.85;13.07;;;;;;;;;;5980700;24;20373;-73
2022/06/03 05:26:44;;;;;;;16.95;12.13;;;;;;;;;;5980638;24;20480;-74
2022/06/03 05:29:27;;;;;;;21.27;13.07;;;;;;;;;;5980594;24;20079;-74
2022/06/03 05:31:59;;;;;;;16.20;11.10;;;;;;;;;;5980371;23;20027;-73
2022/06/03 05:34:31;;;;;;;14.38;11.13;;;;;;;;;;5980394;24;20468;-72
2022/06/03 05:37:16;;;;;;;12.80;11.48;;;;;;;;;;5980279;24;20027;-74
2022/06/03 05:40:01;;;;;;;13.38;11.23;;;;;;;;;;5980605;24;20019;-74
2022/06/03 05:42:49;;;;;;;14.02;10.40;;;;;;;;;;6054003;23;20013;-74
2022/06/03 05:45:34;;;;;;;11.38;9.65;;;;;;;;;;6126278;23;20129;-75
2022/06/03 05:48:19;;;;;;;12.23;10.48;;;;;;;;;;6125963;23;20077;-74
2022/06/03 05:50:45;;;;;;;12.82;8.73;;;;;;;;;;6126175;23;20010;-73
2022/06/03 05:53:20;;;;;;;12.73;10.38;;;;;;;;;;6126011;23;20014;-73
2022/06/03 05:56:05;;;;;;;11.73;9.57;;;;;;;;;;6125806;23;20110;-74
2022/06/03 05:58:54;;;;;;;12.88;8.55;;;;;;;;;;6126053;23;20006;-73
2022/06/03 06:01:29;;;;;;;12.02;8.95;;;;;;;;;;6110993;23;20437;-74
2022/06/03 06:04:07;;;;;;;14.10;8.73;;;;;;;;;;6126266;23;20002;-74
2022/06/03 06:06:51;;;;;;;49.70;12.68;;;;;;;;;;6099922;23;20008;-74
2022/06/03 06:09:36;;;;;;;27.77;11.32;;;;;;;;;;6125912;23;20421;-71
2022/06/03 06:12:14;;;;;;;10.57;9.07;;;;;;;;;;6125979;23;20333;-73
2022/06/03 06:14:40;;;;;;;10.98;9.35;;;;;;;;;;6125941;23;20456;-72
2022/06/03 06:17:25;;;;;;;10.50;9.27;;;;;;;;;;6126062;23;20405;-74
2022/06/03 06:19:55;;;;;;;11.70;9.60;;;;;;;;;;6125751;23;20014;-74
2022/06/03 06:22:24;;;;;;;10.15;8.80;;;;;;;;;;6125759;23;20018;-74
2022/06/03 06:24:56;;;;;;;9.63;7.85;;;;;;;;;;6125912;23;20107;-74
2022/06/03 06:27:29;;;;;;;11.93;9.15;;;;;;;;;;6125781;23;20028;-73
2022/06/03 06:29:57;;;;;;;11.75;9.32;;;;;;;;;;6125773;23;20429;-74
2022/06/03 06:32:23;;;;;;;9.77;8.75;;;;;;;;;;6125477;23;20014;-74
2022/06/03 06:35:07;;;;;;;9.25;8.32;;;;;;;;;;6126037;23;20002;-71
2022/06/03 06:37:36;;;;;;;12.75;9.00;;;;;;;;;;6125577;23;20342;-71
2022/06/03 06:40:02;;;;;;;10.15;8.48;;;;;;;;;;6125615;23;20024;-70
2022/06/03 06:42:36;;;;;;;9.32;8.30;;;;;;;;;;6125721;23;20052;-70
2022/06/03 06:45:03;;;;;;;15.30;8.82;;;;;;;;;;6125535;23;20006;-73
2022/06/03 06:47:36;;;;;;;9.90;8.90;;;;;;;;;;6127273;23;20017;-75
2022/06/03 06:50:06;;;;;;;14.35;8.27;;;;;;;;;;6127571;23;20071;-75
2022/06/03 06:52:46;;;;;;;13.52;9.13;;;;;;;;;;6127548;23;20025;-75
2022/06/03 06:55:16;;;;;;;19.52;6.45;;;;;;;;;;6127720;23;20006;-75
2022/06/03 06:57:47;;;;;;;11.05;8.15;;;;;;;;;;6127285;23;20068;-75
2022/06/03 07:00:24;;;;;;;8.45;6.85;;;;;;;;;;6127944;23;19998;-75
2022/06/03 07:03:26;;;;;;;7.90;6.90;;;;;;;;;;6127615;23;20013;-75
2022/06/03 07:05:52;;;;;;;12.02;7.53;;;;;;;;;;6009729;23;20004;-74
2022/06/03 07:08:20;;;;;;;23.23;8.15;;;;;;;;;;6009743;23;20502;-75
2022/06/03 07:10:52;;;;;;;28.02;9.02;;;;;;;;;;6009960;23;20011;-74
2022/06/03 07:13:24;;;;;;;8.52;7.72;;;;;;;;;;6009817;23;20059;-72
2022/06/03 07:15:50;;;;;;;11.13;7.80;;;;;;;;;;6009735;23;20011;-75
2022/06/03 07:21:13;;;;;;;14.13;10.90;;;;;;;;;;6009340;23;20463;-74
2022/06/03 07:23:50;;;;;;;25.20;9.88;;;;;;;;;;6009671;23;20116;-74
2022/06/03 07:26:16;;;;;;;24.98;11.30;;;;;;;;;;6009502;23;20007;-74
2022/06/03 07:28:46;;;;;;;17.58;11.73;;;;;;;;;;6009612;23;20012;-74
2022/06/03 07:31:12;;;;;;;17.15;11.35;;;;;;;;;;6009271;23;20026;-75
2022/06/03 07:33:47;;;;;;;15.18;11.18;;;;;;;;;;6009649;23;20008;-74
2022/06/03 07:36:13;;;;;;;13.55;10.88;;;;;;;;;;6009243;23;20062;-74
2022/06/03 07:38:49;;;;;;;13.52;11.25;;;;;;;;;;6012058;23;20046;-75
2022/06/03 07:41:15;;;;;;;13.80;12.32;;;;;;;;;;6126933;23;20009;-75
2022/06/03 07:44:01;;;;;;;16.58;12.80;;;;;;;;;;6126977;23;20002;-75
2022/06/03 07:46:31;;;;;;;23.17;11.70;;;;;;;;;;6127025;23;20002;-75
2022/06/03 07:48:57;;;;;;;14.57;9.75;;;;;;;;;;6127223;23;20330;-74
2022/06/03 07:51:32;;;;;;;13.98;10.82;;;;;;;;;;6126779;23;20013;-75
2022/06/03 07:54:07;;;;;;;17.92;10.35;;;;;;;;;;6126820;23;20006;-74
2022/06/03 07:56:35;;;;;;;16.42;10.63;;;;;;;;;;6126314;23;20010;-74
2022/06/03 07:59:04;;;;;;;20.10;10.25;;;;;;;;;;6126889;23;20085;-74
2022/06/03 08:01:32;;;;;;;11.07;9.20;;;;;;;;;;6126804;23;20006;-75
2022/06/03 08:03:58;;;;;;;15.38;9.82;;;;;;;;;;6126674;23;20005;-75
2022/06/03 08:06:30;;;;;;;13.68;8.95;;;;;;;;;;6126576;23;20012;-74
2022/06/03 08:11:43;;;;;;;17.80;11.25;;;;;;;;;;6126897;23;20025;-75
2022/06/03 08:14:09;;;;;;;14.60;9.30;;;;;;;;;;6126938;23;20016;-75
2022/06/03 08:16:35;;;;;;;13.32;11.27;;;;;;;;;;6126722;23;20014;-75
2022/06/03 08:19:21;;;;;;;16.83;10.50;;;;;;;;;;6126637;23;20037;-75
2022/06/03 08:21:52;;;;;;;11.95;8.27;;;;;;;;;;6126773;23;20010;-75
2022/06/03 08:24:18;;;;;;;;;;;;;;;;;;6126945;23;20077;-74
2022/06/03 08:26:47;;;;;;;15.70;10.13;;;;;;;;;;6126645;23;19900;-75
2022/06/03 08:29:25;;;;;;;14.43;10.57;;;716.80;2432.00;;;;;;6126492;23;20010;-76
2022/06/03 08:31:52;;;;;;;11.45;9.32;;;716.80;2432.00;;;;;;6126311;23;20117;-76
2022/06/03 08:34:31;;;;;;;12.48;10.68;;;716.90;2432.00;;;;;;6126363;23;20001;-75
2022/06/03 08:36:58;;;;;;;12.23;9.98;;;716.90;2432.00;;;;;;6126431;23;20506;-76
2022/06/03 08:39:26;;;;;;;12.88;9.48;;;;;;;;;;6126519;23;20025;-75
2022/06/03 08:41:58;;;;;;;211.52;41.78;;;;;;;;;;6126440;23;20010;-74
2022/06/03 08:44:30;;;;;;;35.92;11.30;;;;;;;;;;6126445;23;20334;-75
2022/06/03 08:47:02;;;;;;;18.25;10.10;;;;;;;;;;6126295;23;20002;-77
2022/06/03 08:49:36;;;;;;;21.40;11.80;;;;;;;;;;6126234;23;20013;-75
2022/06/03 08:52:05;;;;;;;13.30;9.88;;;;;;;;;;6126178;23;20017;-75
2022/06/03 08:54:35;;;;;;;18.20;10.35;;;;;;;;;;6126352;23;20033;-75
2022/06/03 08:57:06;;;;;;;13.95;9.70;;;;;;;;;;6126321;23;20024;-75
2022/06/03 08:59:36;;;;;;;26.60;11.43;;;;;;;;;;6126180;23;20056;-75
2022/06/03 09:02:06;;;;;;;18.15;11.93;;;;;;;;;;6126337;23;20225;-75
2022/06/03 09:04:37;;;;;;;17.67;10.85;;;;;;;;;;6126477;23;19998;-76
2022/06/03 09:07:19;;;;;;;14.15;10.95;;;;;;;;;;6126335;23;20002;-75
2022/06/03 09:09:53;;;;;;;13.90;10.15;;;;;;;;;;6126049;23;19997;-75
2022/06/03 09:12:19;;;;;;;13.30;11.13;;;;;;;;;;6126110;23;20072;-75
2022/06/03 09:14:48;;;;;;;18.63;11.48;;;;;;;;;;6126141;23;19997;-76
2022/06/03 09:17:34;;;;;;;17.88;10.23;;;;;;;;;;6126043;23;20010;-76
2022/06/03 09:20:03;;;;;;;18.63;12.68;;;;;;;;;;6125790;23;20029;-74
2022/06/03 09:22:33;;;;;;;15.23;11.60;;;;;;;;;;6126167;23;20037;-75
2022/06/03 09:25:00;;;;;;;14.52;11.45;;;;;;;;;;6126306;23;19998;-75
2022/06/03 09:27:28;;;;;;;15.23;11.98;;;;;;;;;;6126016;23;20006;-75
2022/06/03 09:29:56;;;;;;;13.38;11.45;;;;;;;;;;6125954;23;20002;-75
2022/06/03 09:32:24;;;;;;;15.27;11.60;;;;;;;;;;6125734;23;20072;-75
2022/06/03 09:34:53;;;;;;;15.50;11.90;;;;;;;;;;6126022;23;20002;-75
2022/06/03 09:37:22;;;;;;;28.33;13.30;;;;;;;;;;6125502;23;20089;-75
2022/06/03 09:39:50;;;;;;;20.52;11.95;;;;;;;;;;6126171;23;19998;-75
2022/06/03 09:42:17;;;;;;;19.73;12.07;;;;;;;;;;6126152;23;20006;-74
2022/06/03 09:44:45;;;;;;;25.60;12.10;;;;;;;;;;6126140;23;20002;-76
2022/06/03 09:47:12;;;;;;;14.50;11.18;;;;;;;;;;6126312;23;20346;-75
2022/06/03 09:49:38;;;;;;;21.80;11.18;;;;;;;;;;6126012;23;20006;-75
2022/06/03 09:52:08;;;;;;;18.90;11.82;;;;;;;;;;6125734;23;20010;-74
2022/06/03 09:54:39;;;;;;;16.43;12.60;;;;;;;;;;6126347;23;20013;-75
2022/06/03 09:57:07;;;;;;;17.13;11.90;;;;;;;;;;6125859;23;20283;-75
2022/06/03 09:59:37;;;;;;;15.68;11.45;;;;;;;;;;6126239;23;20040;-75
2022/06/03 10:02:04;;;;;;;14.48;11.77;;;;;;;;;;6126031;23;20009;-74
2022/06/03 10:04:30;;;;;;;27.77;13.18;;;;;;;;;;6126060;23;20052;-74
2022/06/03 10:07:00;;;;;;;21.25;12.23;;;;;;;;;;6125961;23;20009;-75
2022/06/03 10:17:52;;;;;;;25.05;13.73;;;743.30;2176.00;;;;;;6125926;23;20612;-76
2022/06/03 10:20:18;;;;;;;19.38;13.75;;;;;;;;;;6076620;23;20010;-73
2022/06/03 10:22:45;;;;;;;17.88;13.13;;;;;;;;;;6127704;23;20010;-75
2022/06/03 10:25:11;;;;;;;24.52;12.82;;;;;;;;;;6127820;23;20008;-75
2022/06/03 10:27:38;;;;;;;17.77;13.18;;;;;;;;;;6127753;23;20006;-73
2022/06/03 10:30:05;;;;;;;22.35;13.43;;;;;;;;;;6127938;23;20334;-73
2022/06/03 10:32:32;;;;;;;21.83;12.50;;;;;;;;;;6127495;23;20330;-74
2022/06/03 10:35:05;;;;;;;14.57;12.43;;;;;;;;;;6127525;23;20326;-74
2022/06/03 10:37:34;;;;;;;27.25;13.45;;;;;;;;;;6127700;23;20020;-74
2022/06/03 10:40:00;;;;;;;15.02;12.07;;;;;;;;;;6101460;23;20001;-75
2022/06/03 10:42:26;;;;;;;19.75;12.05;;;;;;;;;;6101035;23;20338;-75
2022/06/03 10:44:57;;;;;;;18.00;12.38;;;;;;;;;;6127950;23;20025;-73
2022/06/03 10:47:23;;;;;;;;;;;;;;;;;;6102083;23;20350;-76
2022/06/03 10:49:51;;;;;;;33.25;14.95;;;;;;;;;;6127420;23;19901;-76
2022/06/03 11:03:32;;;;;;;22.17;13.38;;;;;;;;;;6127478;23;20021;-71
2022/06/03 11:06:10;;;;;;;17.63;10.77;;;;;;;;;;6127611;23;19998;-75
2022/06/03 11:08:50;;;;;;;26.75;16.85;;;;;;;;;;6127383;23;20006;-76
2022/06/03 11:11:30;;;;;;;26.48;12.55;;;;;;;;;;6127455;23;20002;-76
2022/06/03 11:13:56;;;;;;;18.27;12.13;;;;;;;;;;6127334;23;20081;-75
2022/06/03 11:16:24;;;;;;;26.75;12.25;;;;;;;;;;6127133;23;20092;-74
2022/06/03 11:18:50;;;;;;;21.60;12.57;;;;;;;;;;6127099;23;20454;-73
2022/06/03 11:21:27;;;;;;;33.80;12.40;;;;;;;;;;6127371;23;20014;-75
2022/06/03 11:23:54;;;;;;;15.80;9.68;;;;;;;;;;6127437;23;20322;-78
2022/06/03 11:26:20;;;;;;;26.55;11.25;;;;;;;;;;6127241;23;20002;-75
2022/06/03 11:28:51;;;;;;;18.67;11.85;;;;;;;;;;6126983;23;20311;-75
2022/06/03 11:31:19;;;;;;;21.08;10.23;;;;;;;;;;6126873;23;20014;-75
2022/06/03 11:33:48;;;;;;;14.63;9.60;;;;;;;;;;6126991;23;20037;-74
2022/06/03 11:36:17;;;;;;;16.80;9.13;;;;;;;;;;6127034;23;20448;-75
2022/06/03 11:38:58;;;;;;;28.23;11.98;;;;;;;;;;6127113;23;20025;-75
2022/06/03 11:41:28;;;;;;;21.17;10.45;;;;;;;;;;6127097;23;20404;-74
2022/06/03 11:43:57;;;;;;;18.00;8.98;;;;;;;;;;6127186;23;20069;-76
2022/06/03 11:46:27;;;;;;;14.50;8.68;;;;;;;;;;6127245;23;20437;-75
2022/06/03 11:48:54;;;;;;;18.35;11.38;;;;;;;;;;6127082;23;20003;-75
2022/06/03 11:51:20;;;;;;;11.73;9.55;;;;;;;;;;6127277;23;20013;-75
2022/06/03 11:53:48;;;;;;;12.48;8.43;;;;;;;;;;6126854;23;20005;-75
2022/06/03 11:56:16;;;;;;;20.17;10.70;;;;;;;;;;6126942;23;20488;-76
2022/06/03 11:58:52;;;;;;;10.00;7.50;;;;;;;;;;6127022;23;20002;-75
2022/06/03 12:01:21;;;;;;;17.38;10.38;;;;;;;;;;6126731;23;20723;-76
2022/06/03 12:03:55;;;;;;;16.92;9.73;;;;;;;;;;6126933;23;20053;-75
2022/06/03 12:06:44;;;;;;;14.48;7.68;;;794.00;1971.20;;;;;;6126634;23;20014;-76
2022/06/03 12:09:21;;;;;;;18.80;7.63;;;794.00;1971.20;;;;;;6126789;23;20057;-77
2022/06/03 12:14:46;;;;;;;16.17;9.02;;;794.00;1945.60;;;;;;6126782;23;20065;-77
2022/06/03 12:17:11;;;;;;;11.88;8.95;;;794.00;1971.20;;;;;;6126506;23;20024;-76
2022/06/03 12:19:47;;;;;;;12.43;8.40;;;793.90;1971.20;;;;;;6126643;23;20049;-76
2022/06/03 12:22:31;;;;;;;9.65;8.50;;;793.80;1971.20;;;;;;6126578;23;20076;-76
2022/06/03 12:25:01;;;;;;;10.30;8.35;;;793.70;1971.20;;;;;;6126660;23;20430;-76
2022/06/03 12:27:34;;;;;;;19.45;8.38;;;793.70;1971.20;;;;;;6126475;23;20509;-76
2022/06/03 12:30:17;;;;;;;17.80;7.40;;;793.70;1971.20;;;;;;6099776;23;20006;-74
2022/06/03 12:33:07;;;;;;;13.73;7.80;;;793.80;1945.60;;;;;;6126269;23;20018;-76
2022/06/03 12:35:45;;;;;;;9.35;8.07;;;793.70;1971.20;;;;;;6126506;23;20006;-77
2022/06/03 12:38:19;;;;;;;9.30;7.40;;;793.70;1945.60;;;;;;6126229;23;20014;-75
2022/06/03 12:40:54;;;;;;;11.60;8.02;;;793.70;1945.60;;;;;;6126625;23;20438;-76
2022/06/03 12:43:29;;;;;;;10.98;7.70;;;793.70;1945.60;;;;;;6126056;23;20080;-76
2022/06/03 12:46:06;;;;;;;16.25;8.48;;;793.70;1945.60;;;;;;6126327;23;20006;-75
2022/06/03 12:48:47;;;;;;;15.25;8.38;;;;;;;;;;6126285;23;20002;-75
2022/06/03 12:51:25;;;;;;;7.68;6.65;;;;;;;;;;6126599;23;20002;-73
2022/06/03 12:53:54;;;;;;;15.00;7.85;;;;;;;;;;6126473;23;20014;-74
2022/06/03 12:56:26;;;;;;;10.80;6.85;;;;;;;;;;6126364;23;20033;-75
2022/06/03 12:59:02;;;;;;;14.32;7.88;;;;;;;;;;6126314;23;20077;-74
2022/06/03 13:01:36;;;;;;;27.33;8.73;;;;;;;;;;6126394;23;20061;-76
2022/06/03 13:04:21;;;;;;;15.18;6.60;;;;;;;;;;6126536;23;20060;-73
2022/06/03 13:07:06;;;;;;;30.83;8.45;;;;;;;;;;6126299;23;20013;-72
2022/06/03 13:09:51;;;;;;;52.92;10.18;;;;;;;;;;6126307;23;20373;-71
2022/06/03 13:12:28;;;;;;;13.35;8.02;;;;;;;;;;6126256;23;20006;-74
2022/06/03 13:14:55;;;;;;;19.83;8.02;;;;;;;;;;6126225;23;20069;-76
2022/06/03 13:17:40;;;;;;;14.60;7.97;;;;;;;;;;6126147;23;20092;-71
2022/06/03 13:20:06;;;;;;;13.50;7.75;;;;;;;;;;6126185;23;20002;-73
2022/06/03 13:22:46;;;;;;;7.90;6.32;;;;;;;;;;6126517;23;20366;-69
2022/06/03 13:25:26;;;;;;;10.98;7.32;;;;;;;;;;5070315;28;20441;-72
2022/06/03 13:28:07;;;;;;;8.07;6.97;;;;;;;;;;5069065;28;20059;-71
2022/06/03 13:30:37;;;;;;;10.23;8.00;;;;;;;;;;5070094;28;20031;-74
2022/06/03 13:33:20;;;;;;;9.32;7.20;;;;;;;;;;5068775;28;20434;-75
2022/06/03 13:36:04;;;;;;;10.18;7.18;;;;;;;;;;5070329;28;20035;-75
2022/06/03 13:38:41;;;;;;;9.88;7.88;;;;;;;;;;5070473;28;20025;-74
2022/06/03 13:44:08;;;;;;;18.15;8.15;;;;;;;;;;5069842;28;20423;-76
2022/06/03 13:46:35;;;;;;;12.00;7.55;;;;;;;;;;5069795;28;20487;-75
2022/06/03 13:49:06;;;;;;;53.33;12.43;;;;;;;;;;5068471;28;20033;-76
2022/06/03 13:51:48;;;;;;;15.55;8.27;;;;;;;;;;5069555;28;20063;-76
2022/06/03 13:54:21;;;;;;;9.45;7.65;;;;;;;;;;5069848;28;20115;-76
2022/06/03 13:57:06;;;;;;;25.42;7.93;;;;;;;;;;5069632;28;20464;-75
2022/06/03 13:59:34;;;;;;;20.45;7.65;;;;;;;;;;5069514;28;20040;-76
2022/06/03 14:02:00;;;;;;;10.23;6.35;;;;;;;;;;5069492;28;20092;-75
2022/06/03 14:04:31;;;;;;;17.55;8.98;;;;;;;;;;5069480;28;20040;-75
2022/06/03 14:07:06;;;;;;;14.15;9.35;;;;;;;;;;5069425;28;20468;-75
2022/06/03 14:09:32;;;;;;;10.25;8.60;;;;;;;;;;5069642;28;20025;-75
2022/06/03 14:12:08;;;;;;;21.88;6.90;;;;;;;;;;5069195;28;20069;-75
2022/06/03 14:14:43;;;;;;;11.95;7.45;;;;;;;;;;5069230;28;20036;-75
2022/06/03 14:17:29;;;;;;;12.50;7.25;;;;;;;;;;5069061;28;20031;-74
2022/06/03 14:19:59;;;;;;;11.05;6.97;;;;;;;;;;5069239;28;20027;-75
2022/06/03 14:22:28;;;;;;;11.27;7.15;;;;;;;;;;5069223;28;20106;-75
2022/06/03 14:25:03;;;;;;;17.70;7.75;;;;;;;;;;5068723;28;20144;-75
2022/06/03 14:27:33;;;;;;;12.55;7.05;;;;;;;;;;5069057;28;20025;-73
2022/06/03 14:30:09;;;;;;;13.00;7.27;;;;;;;;;;5068889;28;20021;-76
2022/06/03 14:32:37;;;;;;;17.58;7.85;;;;;;;;;;5068771;28;20111;-76
2022/06/03 14:35:09;;;;;;;19.38;8.30;;;;;;;;;;5064698;28;20108;-75
2022/06/03 14:37:55;;;;;;;9.57;7.00;;;;;;;;;;5055663;28;20395;-76
2022/06/03 14:40:23;;;;;;;17.98;8.00;;;;;;;;;;5055438;28;20027;-75
2022/06/03 14:42:50;;;;;;;12.70;7.20;;;;;;;;;;5055663;28;20032;-75
2022/06/03 14:45:16;;;;;;;24.65;7.88;;;;;;;;;;5055400;28;20037;-72
2022/06/03 14:47:53;;;;;;;14.43;8.20;;;;;;;;;;5055532;28;20017;-76
2022/06/03 14:50:25;;;;;;;13.90;7.95;;;;;;;;;;5055249;28;20104;-75
2022/06/03 14:53:14;;;;;;;17.90;8.40;;;;;;;;;;5055208;28;20365;-75
2022/06/03 14:55:45;;;;;;;14.98;7.13;;;;;;;;;;5055527;28;20032;-75
2022/06/03 14:58:16;;;;;;;12.05;6.28;;;;;;;;;;5055216;28;20017;-75
2022/06/03 15:00:51;;;;;;;21.10;6.50;;;;;;;;;;5055662;28;20071;-75
2022/06/03 15:03:17;;;;;;;12.77;7.07;;;;;;;;;;5055061;28;20029;-75
2022/06/03 15:05:54;;;;;;;11.75;7.70;;;;;;;;;;5055123;28;20107;-75
2022/06/03 15:08:28;;;;;;;16.45;8.02;;;;;;;;;;5055242;28;20086;-73
2022/06/03 15:11:13;;;;;;;12.10;7.47;;;;;;;;;;5054956;28;20033;-74
2022/06/03 15:13:39;;;;;;;14.70;8.50;;;;;;;;;;5054789;28;20071;-75
2022/06/03 15:16:06;;;;;;;10.43;8.25;;;;;;;;;;5055121;28;20021;-75